nagios.com alexa rank chart, nagios.com alexa rank daily changes

nagios.com alexa rank chart, nagios.com alexa rank daily changes

nagios.com
Actual rank:
57 078

RANK HISTORY

Date Rank Diff
2018/05/27 57 078 +20 056
2018/05/26 37 022 -1 228
2018/05/25 38 250 -2 551
2018/05/24 40 801 -26 537
2018/05/23 67 338 -54 736
2018/05/22 122 074 +30 122
2018/05/21 91 952 +36 850
2018/05/20 55 102 -49 227
2018/05/19 104 329 +43 827
2018/05/18 60 502 +4 581
2018/05/17 55 921 -6 372
2018/05/16 62 293 -127 806
2018/05/15 190 099 +79 988
2018/05/14 110 111 +62 010
2018/05/13 48 101 -3 051
2018/05/12 51 152 +6 418
2018/05/11 44 734 -16 468
2018/05/10 61 202 +24 803
2018/05/09 36 399 -147 049
2018/05/07 183 448 +142 284
2018/05/06 41 164 +5 870
2018/05/05 35 294 -5 330
2018/05/04 40 624 -18 653
2018/05/03 59 277 +7 801
2018/05/02 51 476 -122 039
2018/05/01 173 515 +68 037
2018/04/30 105 478 +62 430
2018/04/29 43 048 -25 414
2018/04/28 68 462 -37 451
2018/04/27 105 913 +88 906
2018/04/26 17 007 -35 976
2018/04/25 52 983 -58 774
2018/04/24 111 757 +5 844
2018/04/23 105 913 +54 245
2018/04/22 51 668 +2 960
2018/04/21 48 708 -21 108
2018/04/20 69 816 +13 560
2018/04/19 56 256 +10 685
2018/04/18 45 571 -120 365
2018/04/17 165 936 +33 239
2018/04/16 132 697 +84 336
2018/04/15 48 361 -20 816
2018/04/14 69 177 +21 763
2018/04/13 47 414 -17 181
2018/04/12 64 595 +23 102
2018/04/11 41 493 -79 688
2018/04/10 121 181 +17 900
2018/04/09 103 281 +43 391
2018/04/08 59 890 +9 882
2018/04/07 50 008 -6 998
2018/04/06 57 006 +1 045
2018/04/05 55 961 -40 646
2018/04/04 96 607 -83 251
2018/04/03 179 858 +14 332
2018/04/02 165 526 +98 163
2018/04/01 67 363 +8 081
2018/03/31 59 282 -7 645
2018/03/30 66 927 -2 124
2018/03/29 69 051 +6 137
2018/03/28 62 914

WIDGET FOR YOUR SITE

DOMAINS WITH THE NEAREST RANK

Domain Rank
roznama92news.com 57 073
cartasdesdecuba.com 57 074
shophive.com 57 075
humankinetics.com 57 076
fullcoll.edu 57 077
nagios.com 57 078
antikor.com.ua 57 079
vidioviral.com 57 080
worldsoccershop.com 57 081
xnxx.fit 57 082
odintoken.io 57 083

DOMAINS WITH THE NEAREST RANK BY TLD .com

Domain Rank
superdry.com 57 070
roznama92news.com 57 073
cartasdesdecuba.com 57 074
shophive.com 57 075
humankinetics.com 57 076
nagios.com 57 078
vidioviral.com 57 080
worldsoccershop.com 57 081
arubacloud.com 57 085
wd.com 57 087
barghnews.com 57 092